sensor_id;sensor_type;location;lat;lon;timestamp;P1;durP1;ratioP1;P2;durP2;ratioP2
44955;SDS011;30686;52.512;-1.188;2023-02-28T00:00:18;4.10;;;1.98;;
44955;SDS011;30686;52.512;-1.188;2023-02-28T00:02:45;2.80;;;1.70;;
44955;SDS011;30686;52.512;-1.188;2023-02-28T00:05:12;3.35;;;1.58;;
44955;SDS011;30686;52.512;-1.188;2023-02-28T00:07:38;3.95;;;1.92;;
44955;SDS011;30686;52.512;-1.188;2023-02-28T00:10:05;5.07;;;1.77;;
44955;SDS011;30686;52.512;-1.188;2023-02-28T00:12:33;15.27;;;5.63;;
44955;SDS011;30686;52.512;-1.188;2023-02-28T00:14:59;47.60;;;15.02;;
44955;SDS011;30686;52.512;-1.188;2023-02-28T00:17:25;57.28;;;15.52;;
44955;SDS011;30686;52.512;-1.188;2023-02-28T00:19:52;50.38;;;14.68;;
44955;SDS011;30686;52.512;-1.188;2023-02-28T00:22:19;50.92;;;15.00;;
44955;SDS011;30686;52.512;-1.188;2023-02-28T00:24:46;49.25;;;16.35;;
44955;SDS011;30686;52.512;-1.188;2023-02-28T00:27:13;58.63;;;21.92;;
44955;SDS011;30686;52.512;-1.188;2023-02-28T00:29:42;40.08;;;12.90;;
44955;SDS011;30686;52.512;-1.188;2023-02-28T00:32:08;27.70;;;9.25;;
44955;SDS011;30686;52.512;-1.188;2023-02-28T00:34:34;11.50;;;5.20;;
44955;SDS011;30686;52.512;-1.188;2023-02-28T00:37:06;8.88;;;4.30;;
44955;SDS011;30686;52.512;-1.188;2023-02-28T00:39:34;11.05;;;3.42;;
44955;SDS011;30686;52.512;-1.188;2023-02-28T00:42:00;13.93;;;5.07;;
44955;SDS011;30686;52.512;-1.188;2023-02-28T00:44:27;22.63;;;9.65;;
44955;SDS011;30686;52.512;-1.188;2023-02-28T00:46:53;28.70;;;9.85;;
44955;SDS011;30686;52.512;-1.188;2023-02-28T00:49:20;30.80;;;11.52;;
44955;SDS011;30686;52.512;-1.188;2023-02-28T00:51:46;30.70;;;10.75;;
44955;SDS011;30686;52.512;-1.188;2023-02-28T00:54:13;52.10;;;16.17;;
44955;SDS011;30686;52.512;-1.188;2023-02-28T00:56:39;45.70;;;15.38;;
44955;SDS011;30686;52.512;-1.188;2023-02-28T00:59:05;34.08;;;12.30;;
44955;SDS011;30686;52.512;-1.188;2023-02-28T01:01:31;29.48;;;13.10;;
44955;SDS011;30686;52.512;-1.188;2023-02-28T01:03:59;49.85;;;17.25;;
44955;SDS011;30686;52.512;-1.188;2023-02-28T01:06:25;46.60;;;15.93;;
44955;SDS011;30686;52.512;-1.188;2023-02-28T01:08:52;34.72;;;12.32;;
44955;SDS011;30686;52.512;-1.188;2023-02-28T01:11:18;17.83;;;8.35;;
44955;SDS011;30686;52.512;-1.188;2023-02-28T01:13:45;14.55;;;6.35;;
44955;SDS011;30686;52.512;-1.188;2023-02-28T01:16:12;9.05;;;4.07;;
44955;SDS011;30686;52.512;-1.188;2023-02-28T01:18:38;8.35;;;3.88;;
44955;SDS011;30686;52.512;-1.188;2023-02-28T01:21:09;10.13;;;3.83;;
44955;SDS011;30686;52.512;-1.188;2023-02-28T01:23:35;8.60;;;4.53;;
44955;SDS011;30686;52.512;-1.188;2023-02-28T01:26:05;10.40;;;4.78;;
44955;SDS011;30686;52.512;-1.188;2023-02-28T01:28:31;13.05;;;5.78;;
44955;SDS011;30686;52.512;-1.188;2023-02-28T01:30:59;10.63;;;5.22;;
44955;SDS011;30686;52.512;-1.188;2023-02-28T01:33:25;12.18;;;5.80;;
44955;SDS011;30686;52.512;-1.188;2023-02-28T01:35:58;22.58;;;7.45;;
44955;SDS011;30686;52.512;-1.188;2023-02-28T01:38:25;25.95;;;11.10;;
44955;SDS011;30686;52.512;-1.188;2023-02-28T01:40:51;25.40;;;12.40;;
44955;SDS011;30686;52.512;-1.188;2023-02-28T01:43:22;34.03;;;12.20;;
44955;SDS011;30686;52.512;-1.188;2023-02-28T01:45:49;34.22;;;12.68;;
44955;SDS011;30686;52.512;-1.188;2023-02-28T01:48:15;30.35;;;11.13;;
44955;SDS011;30686;52.512;-1.188;2023-02-28T01:50:43;37.90;;;13.05;;
44955;SDS011;30686;52.512;-1.188;2023-02-28T01:53:12;37.08;;;12.25;;
44955;SDS011;30686;52.512;-1.188;2023-02-28T01:55:39;33.65;;;12.15;;
44955;SDS011;30686;52.512;-1.188;2023-02-28T01:58:06;29.42;;;10.88;;
44955;SDS011;30686;52.512;-1.188;2023-02-28T02:00:34;33.50;;;11.43;;
44955;SDS011;30686;52.512;-1.188;2023-02-28T02:03:03;30.50;;;10.77;;
44955;SDS011;30686;52.512;-1.188;2023-02-28T02:05:31;19.75;;;9.82;;
44955;SDS011;30686;52.512;-1.188;2023-02-28T02:08:19;13.98;;;5.97;;
44955;SDS011;30686;52.512;-1.188;2023-02-28T02:10:47;10.82;;;5.55;;
44955;SDS011;30686;52.512;-1.188;2023-02-28T02:23:47;13.63;;;5.72;;
44955;SDS011;30686;52.512;-1.188;2023-02-28T02:36:51;6.85;;;3.63;;
44955;SDS011;30686;52.512;-1.188;2023-02-28T02:39:27;7.32;;;4.25;;
44955;SDS011;30686;52.512;-1.188;2023-02-28T02:41:56;8.60;;;4.53;;
44955;SDS011;30686;52.512;-1.188;2023-02-28T02:44:28;7.05;;;4.10;;
44955;SDS011;30686;52.512;-1.188;2023-02-28T02:47:06;8.57;;;3.58;;
44955;SDS011;30686;52.512;-1.188;2023-02-28T02:49:36;8.23;;;3.47;;
44955;SDS011;30686;52.512;-1.188;2023-02-28T02:52:03;8.18;;;4.90;;
44955;SDS011;30686;52.512;-1.188;2023-02-28T02:54:31;8.23;;;3.85;;
44955;SDS011;30686;52.512;-1.188;2023-02-28T02:57:03;7.65;;;4.20;;
44955;SDS011;30686;52.512;-1.188;2023-02-28T02:59:30;13.25;;;6.00;;
44955;SDS011;30686;52.512;-1.188;2023-02-28T03:04:43;10.52;;;4.60;;
44955;SDS011;30686;52.512;-1.188;2023-02-28T03:07:11;6.90;;;3.58;;
44955;SDS011;30686;52.512;-1.188;2023-02-28T03:09:38;9.45;;;4.15;;
44955;SDS011;30686;52.512;-1.188;2023-02-28T03:12:04;8.05;;;3.88;;
44955;SDS011;30686;52.512;-1.188;2023-02-28T03:27:34;15.63;;;4.25;;
44955;SDS011;30686;52.512;-1.188;2023-02-28T03:30:04;6.85;;;4.25;;
44955;SDS011;30686;52.512;-1.188;2023-02-28T03:32:37;8.50;;;3.95;;
44955;SDS011;30686;52.512;-1.188;2023-02-28T03:35:14;8.82;;;4.60;;
44955;SDS011;30686;52.512;-1.188;2023-02-28T03:37:47;7.75;;;3.53;;
44955;SDS011;30686;52.512;-1.188;2023-02-28T03:40:25;9.77;;;3.63;;
44955;SDS011;30686;52.512;-1.188;2023-02-28T03:42:55;9.63;;;4.20;;
44955;SDS011;30686;52.512;-1.188;2023-02-28T03:45:26;5.90;;;3.22;;
44955;SDS011;30686;52.512;-1.188;2023-02-28T03:47:57;11.10;;;3.90;;
44955;SDS011;30686;52.512;-1.188;2023-02-28T03:50:24;10.00;;;3.67;;
44955;SDS011;30686;52.512;-1.188;2023-02-28T03:52:55;10.93;;;3.70;;
44955;SDS011;30686;52.512;-1.188;2023-02-28T03:55:30;7.18;;;3.60;;
44955;SDS011;30686;52.512;-1.188;2023-02-28T04:00:46;8.30;;;3.67;;
44955;SDS011;30686;52.512;-1.188;2023-02-28T04:03:13;6.22;;;3.40;;
44955;SDS011;30686;52.512;-1.188;2023-02-28T04:05:55;7.00;;;3.40;;
44955;SDS011;30686;52.512;-1.188;2023-02-28T04:08:22;6.65;;;3.42;;
44955;SDS011;30686;52.512;-1.188;2023-02-28T04:10:51;6.25;;;3.28;;
44955;SDS011;30686;52.512;-1.188;2023-02-28T04:13:21;8.13;;;3.05;;
44955;SDS011;30686;52.512;-1.188;2023-02-28T04:15:47;7.57;;;3.25;;
44955;SDS011;30686;52.512;-1.188;2023-02-28T04:18:14;5.65;;;3.03;;
44955;SDS011;30686;52.512;-1.188;2023-02-28T04:20:42;5.18;;;2.78;;
44955;SDS011;30686;52.512;-1.188;2023-02-28T04:23:08;7.53;;;2.80;;
44955;SDS011;30686;52.512;-1.188;2023-02-28T04:25:34;6.70;;;3.13;;
44955;SDS011;30686;52.512;-1.188;2023-02-28T04:28:01;9.10;;;3.88;;
44955;SDS011;30686;52.512;-1.188;2023-02-28T04:30:27;15.32;;;6.43;;
44955;SDS011;30686;52.512;-1.188;2023-02-28T04:32:55;19.33;;;7.45;;
44955;SDS011;30686;52.512;-1.188;2023-02-28T04:35:22;14.45;;;5.78;;
44955;SDS011;30686;52.512;-1.188;2023-02-28T04:37:51;6.68;;;3.28;;
44955;SDS011;30686;52.512;-1.188;2023-02-28T04:40:17;12.68;;;5.88;;
44955;SDS011;30686;52.512;-1.188;2023-02-28T04:42:43;13.98;;;5.00;;
44955;SDS011;30686;52.512;-1.188;2023-02-28T04:45:10;11.02;;;4.05;;
44955;SDS011;30686;52.512;-1.188;2023-02-28T04:47:38;17.02;;;5.60;;
44955;SDS011;30686;52.512;-1.188;2023-02-28T04:50:04;15.60;;;5.68;;
44955;SDS011;30686;52.512;-1.188;2023-02-28T04:52:33;15.27;;;5.68;;
44955;SDS011;30686;52.512;-1.188;2023-02-28T04:54:59;17.90;;;6.63;;
44955;SDS011;30686;52.512;-1.188;2023-02-28T04:57:28;13.75;;;5.38;;
44955;SDS011;30686;52.512;-1.188;2023-02-28T04:59:55;13.57;;;4.75;;
44955;SDS011;30686;52.512;-1.188;2023-02-28T05:02:21;10.55;;;4.30;;
44955;SDS011;30686;52.512;-1.188;2023-02-28T05:04:48;12.40;;;4.88;;
44955;SDS011;30686;52.512;-1.188;2023-02-28T05:07:15;7.47;;;4.05;;
44955;SDS011;30686;52.512;-1.188;2023-02-28T05:09:41;9.43;;;3.50;;
44955;SDS011;30686;52.512;-1.188;2023-02-28T05:12:10;14.45;;;4.15;;
44955;SDS011;30686;52.512;-1.188;2023-02-28T05:14:36;9.00;;;3.75;;
44955;SDS011;30686;52.512;-1.188;2023-02-28T05:17:02;7.93;;;2.90;;
44955;SDS011;30686;52.512;-1.188;2023-02-28T05:19:28;5.70;;;2.47;;
44955;SDS011;30686;52.512;-1.188;2023-02-28T05:21:55;4.93;;;2.50;;
44955;SDS011;30686;52.512;-1.188;2023-02-28T05:24:21;5.85;;;2.22;;
44955;SDS011;30686;52.512;-1.188;2023-02-28T05:26:50;6.75;;;2.03;;
44955;SDS011;30686;52.512;-1.188;2023-02-28T05:29:17;4.93;;;2.30;;
44955;SDS011;30686;52.512;-1.188;2023-02-28T05:31:46;5.63;;;2.15;;
44955;SDS011;30686;52.512;-1.188;2023-02-28T05:34:13;3.92;;;2.05;;
44955;SDS011;30686;52.512;-1.188;2023-02-28T05:36:40;4.53;;;1.92;;
44955;SDS011;30686;52.512;-1.188;2023-02-28T05:39:07;5.32;;;2.25;;
44955;SDS011;30686;52.512;-1.188;2023-02-28T05:41:38;5.32;;;2.20;;
44955;SDS011;30686;52.512;-1.188;2023-02-28T05:44:04;3.63;;;2.10;;
44955;SDS011;30686;52.512;-1.188;2023-02-28T05:46:31;5.13;;;2.47;;
44955;SDS011;30686;52.512;-1.188;2023-02-28T05:48:57;5.25;;;2.25;;
44955;SDS011;30686;52.512;-1.188;2023-02-28T05:51:25;4.10;;;1.55;;
44955;SDS011;30686;52.512;-1.188;2023-02-28T05:53:51;4.32;;;2.10;;
44955;SDS011;30686;52.512;-1.188;2023-02-28T05:56:17;4.90;;;2.42;;
44955;SDS011;30686;52.512;-1.188;2023-02-28T05:58:44;4.13;;;2.20;;
44955;SDS011;30686;52.512;-1.188;2023-02-28T06:01:24;4.70;;;2.50;;
44955;SDS011;30686;52.512;-1.188;2023-02-28T06:03:52;10.15;;;3.20;;
44955;SDS011;30686;52.512;-1.188;2023-02-28T06:06:18;5.82;;;2.80;;
44955;SDS011;30686;52.512;-1.188;2023-02-28T06:08:44;8.05;;;3.78;;
44955;SDS011;30686;52.512;-1.188;2023-02-28T06:11:11;7.22;;;3.42;;
44955;SDS011;30686;52.512;-1.188;2023-02-28T06:13:37;8.43;;;4.18;;
44955;SDS011;30686;52.512;-1.188;2023-02-28T06:16:03;6.93;;;3.50;;
44955;SDS011;30686;52.512;-1.188;2023-02-28T06:18:30;11.02;;;3.83;;
44955;SDS011;30686;52.512;-1.188;2023-02-28T06:20:56;12.15;;;3.53;;
44955;SDS011;30686;52.512;-1.188;2023-02-28T06:23:22;6.03;;;3.38;;
44955;SDS011;30686;52.512;-1.188;2023-02-28T06:25:48;10.50;;;4.30;;
44955;SDS011;30686;52.512;-1.188;2023-02-28T06:28:15;7.55;;;3.53;;
44955;SDS011;30686;52.512;-1.188;2023-02-28T06:30:42;6.72;;;3.38;;
44955;SDS011;30686;52.512;-1.188;2023-02-28T06:33:10;11.77;;;5.57;;
44955;SDS011;30686;52.512;-1.188;2023-02-28T06:35:36;9.60;;;4.53;;
44955;SDS011;30686;52.512;-1.188;2023-02-28T06:38:03;7.80;;;4.20;;
44955;SDS011;30686;52.512;-1.188;2023-02-28T06:43:35;8.93;;;4.03;;
44955;SDS011;30686;52.512;-1.188;2023-02-28T06:46:02;9.70;;;4.38;;
44955;SDS011;30686;52.512;-1.188;2023-02-28T06:48:29;12.43;;;4.32;;
44955;SDS011;30686;52.512;-1.188;2023-02-28T06:51:05;11.32;;;4.90;;
44955;SDS011;30686;52.512;-1.188;2023-02-28T06:53:32;13.27;;;5.45;;
44955;SDS011;30686;52.512;-1.188;2023-02-28T06:55:58;12.68;;;5.35;;
44955;SDS011;30686;52.512;-1.188;2023-02-28T06:58:25;16.95;;;5.68;;
44955;SDS011;30686;52.512;-1.188;2023-02-28T07:00:51;12.57;;;5.93;;
44955;SDS011;30686;52.512;-1.188;2023-02-28T07:03:18;13.07;;;5.57;;
44955;SDS011;30686;52.512;-1.188;2023-02-28T07:05:45;11.50;;;5.65;;
44955;SDS011;30686;52.512;-1.188;2023-02-28T07:08:13;13.57;;;6.13;;
44955;SDS011;30686;52.512;-1.188;2023-02-28T07:10:40;14.38;;;6.80;;
44955;SDS011;30686;52.512;-1.188;2023-02-28T07:13:09;16.17;;;6.15;;
44955;SDS011;30686;52.512;-1.188;2023-02-28T07:15:36;21.17;;;8.32;;
44955;SDS011;30686;52.512;-1.188;2023-02-28T07:18:02;17.83;;;8.38;;
44955;SDS011;30686;52.512;-1.188;2023-02-28T07:20:29;17.67;;;8.63;;
44955;SDS011;30686;52.512;-1.188;2023-02-28T07:23:04;20.60;;;7.97;;
44955;SDS011;30686;52.512;-1.188;2023-02-28T07:25:30;17.90;;;7.45;;
44955;SDS011;30686;52.512;-1.188;2023-02-28T07:27:56;18.25;;;7.22;;
44955;SDS011;30686;52.512;-1.188;2023-02-28T07:30:24;15.95;;;7.55;;
44955;SDS011;30686;52.512;-1.188;2023-02-28T07:32:50;16.50;;;7.93;;
44955;SDS011;30686;52.512;-1.188;2023-02-28T07:35:16;14.95;;;6.10;;
44955;SDS011;30686;52.512;-1.188;2023-02-28T07:37:43;14.25;;;7.32;;
44955;SDS011;30686;52.512;-1.188;2023-02-28T07:40:10;14.07;;;6.75;;
44955;SDS011;30686;52.512;-1.188;2023-02-28T07:42:40;15.43;;;6.90;;
44955;SDS011;30686;52.512;-1.188;2023-02-28T07:45:07;16.77;;;7.90;;
44955;SDS011;30686;52.512;-1.188;2023-02-28T07:47:39;14.13;;;6.45;;
44955;SDS011;30686;52.512;-1.188;2023-02-28T07:50:06;18.13;;;6.95;;
44955;SDS011;30686;52.512;-1.188;2023-02-28T07:52:34;19.00;;;6.35;;
44955;SDS011;30686;52.512;-1.188;2023-02-28T07:55:01;12.45;;;5.90;;
44955;SDS011;30686;52.512;-1.188;2023-02-28T07:57:28;13.27;;;6.10;;
44955;SDS011;30686;52.512;-1.188;2023-02-28T07:59:54;19.88;;;7.78;;
44955;SDS011;30686;52.512;-1.188;2023-02-28T08:02:21;17.70;;;6.80;;
44955;SDS011;30686;52.512;-1.188;2023-02-28T08:04:50;15.57;;;6.70;;
44955;SDS011;30686;52.512;-1.188;2023-02-28T08:07:16;17.25;;;7.28;;
44955;SDS011;30686;52.512;-1.188;2023-02-28T08:09:43;12.82;;;6.07;;
44955;SDS011;30686;52.512;-1.188;2023-02-28T08:12:10;11.63;;;6.22;;
44955;SDS011;30686;52.512;-1.188;2023-02-28T08:14:39;20.05;;;7.43;;
44955;SDS011;30686;52.512;-1.188;2023-02-28T08:17:06;18.25;;;6.30;;
44955;SDS011;30686;52.512;-1.188;2023-02-28T08:19:32;12.75;;;5.72;;
44955;SDS011;30686;52.512;-1.188;2023-02-28T08:22:05;14.20;;;5.85;;
44955;SDS011;30686;52.512;-1.188;2023-02-28T08:24:31;11.13;;;5.93;;
44955;SDS011;30686;52.512;-1.188;2023-02-28T08:26:58;10.90;;;6.10;;
44955;SDS011;30686;52.512;-1.188;2023-02-28T08:29:24;10.05;;;4.95;;
44955;SDS011;30686;52.512;-1.188;2023-02-28T08:31:51;9.57;;;4.68;;
44955;SDS011;30686;52.512;-1.188;2023-02-28T08:34:17;15.13;;;6.18;;
44955;SDS011;30686;52.512;-1.188;2023-02-28T08:36:43;15.93;;;6.72;;
44955;SDS011;30686;52.512;-1.188;2023-02-28T08:39:11;13.93;;;6.57;;
44955;SDS011;30686;52.512;-1.188;2023-02-28T08:41:37;17.08;;;6.38;;
44955;SDS011;30686;52.512;-1.188;2023-02-28T08:44:03;11.50;;;5.72;;
44955;SDS011;30686;52.512;-1.188;2023-02-28T08:46:29;11.38;;;6.22;;
44955;SDS011;30686;52.512;-1.188;2023-02-28T08:48:56;17.27;;;6.65;;
44955;SDS011;30686;52.512;-1.188;2023-02-28T08:51:28;15.65;;;7.55;;
44955;SDS011;30686;52.512;-1.188;2023-02-28T08:53:55;14.35;;;6.88;;
44955;SDS011;30686;52.512;-1.188;2023-02-28T08:56:23;17.98;;;7.38;;
44955;SDS011;30686;52.512;-1.188;2023-02-28T08:58:50;14.55;;;7.13;;
44955;SDS011;30686;52.512;-1.188;2023-02-28T09:01:17;18.05;;;7.50;;
44955;SDS011;30686;52.512;-1.188;2023-02-28T09:03:44;16.13;;;6.95;;
44955;SDS011;30686;52.512;-1.188;2023-02-28T09:06:11;15.40;;;7.28;;
44955;SDS011;30686;52.512;-1.188;2023-02-28T09:08:38;17.45;;;7.88;;
44955;SDS011;30686;52.512;-1.188;2023-02-28T09:11:04;19.63;;;7.70;;
44955;SDS011;30686;52.512;-1.188;2023-02-28T09:13:31;15.40;;;7.00;;
44955;SDS011;30686;52.512;-1.188;2023-02-28T09:15:58;16.17;;;6.68;;
44955;SDS011;30686;52.512;-1.188;2023-02-28T09:18:27;19.73;;;7.32;;
44955;SDS011;30686;52.512;-1.188;2023-02-28T09:20:53;15.52;;;6.80;;
44955;SDS011;30686;52.512;-1.188;2023-02-28T09:23:19;21.48;;;7.00;;
44955;SDS011;30686;52.512;-1.188;2023-02-28T09:25:47;17.08;;;7.68;;
44955;SDS011;30686;52.512;-1.188;2023-02-28T09:28:14;21.90;;;8.07;;
44955;SDS011;30686;52.512;-1.188;2023-02-28T09:30:41;16.20;;;7.40;;
44955;SDS011;30686;52.512;-1.188;2023-02-28T09:33:07;12.55;;;6.30;;
44955;SDS011;30686;52.512;-1.188;2023-02-28T09:35:33;15.35;;;5.90;;
44955;SDS011;30686;52.512;-1.188;2023-02-28T09:38:02;12.95;;;5.57;;
44955;SDS011;30686;52.512;-1.188;2023-02-28T09:40:28;13.95;;;6.07;;
44955;SDS011;30686;52.512;-1.188;2023-02-28T09:42:55;11.80;;;5.70;;
44955;SDS011;30686;52.512;-1.188;2023-02-28T09:45:24;12.90;;;5.22;;
44955;SDS011;30686;52.512;-1.188;2023-02-28T09:47:54;8.57;;;3.90;;
44955;SDS011;30686;52.512;-1.188;2023-02-28T09:50:34;10.70;;;4.95;;
44955;SDS011;30686;52.512;-1.188;2023-02-28T09:53:03;8.45;;;4.07;;
44955;SDS011;30686;52.512;-1.188;2023-02-28T09:58:04;9.02;;;4.13;;
44955;SDS011;30686;52.512;-1.188;2023-02-28T10:00:36;11.32;;;4.53;;
44955;SDS011;30686;52.512;-1.188;2023-02-28T10:05:53;8.70;;;3.92;;
44955;SDS011;30686;52.512;-1.188;2023-02-28T10:10:54;7.28;;;3.25;;
44955;SDS011;30686;52.512;-1.188;2023-02-28T10:13:23;9.48;;;3.67;;
44955;SDS011;30686;52.512;-1.188;2023-02-28T10:15:52;6.72;;;3.80;;
44955;SDS011;30686;52.512;-1.188;2023-02-28T10:18:24;7.28;;;3.75;;
44955;SDS011;30686;52.512;-1.188;2023-02-28T10:20:51;7.28;;;3.53;;
44955;SDS011;30686;52.512;-1.188;2023-02-28T10:23:20;7.10;;;3.13;;
44955;SDS011;30686;52.512;-1.188;2023-02-28T10:25:49;8.45;;;3.80;;
44955;SDS011;30686;52.512;-1.188;2023-02-28T10:28:19;7.22;;;3.45;;
44955;SDS011;30686;52.512;-1.188;2023-02-28T10:30:46;10.23;;;4.40;;
44955;SDS011;30686;52.512;-1.188;2023-02-28T10:33:30;6.50;;;3.30;;
44955;SDS011;30686;52.512;-1.188;2023-02-28T10:35:56;8.38;;;3.92;;
44955;SDS011;30686;52.512;-1.188;2023-02-28T10:38:27;10.70;;;3.83;;
44955;SDS011;30686;52.512;-1.188;2023-02-28T10:41:03;7.97;;;3.67;;
44955;SDS011;30686;52.512;-1.188;2023-02-28T10:43:29;8.52;;;3.83;;
44955;SDS011;30686;52.512;-1.188;2023-02-28T10:46:01;9.15;;;4.40;;
44955;SDS011;30686;52.512;-1.188;2023-02-28T10:48:40;8.60;;;4.53;;
44955;SDS011;30686;52.512;-1.188;2023-02-28T10:51:12;6.47;;;3.22;;
44955;SDS011;30686;52.512;-1.188;2023-02-28T10:53:46;6.30;;;3.13;;
44955;SDS011;30686;52.512;-1.188;2023-02-28T11:01:15;4.68;;;2.92;;
44955;SDS011;30686;52.512;-1.188;2023-02-28T11:03:42;6.43;;;3.17;;
44955;SDS011;30686;52.512;-1.188;2023-02-28T11:06:12;12.45;;;5.90;;
44955;SDS011;30686;52.512;-1.188;2023-02-28T11:08:57;14.63;;;6.97;;
44955;SDS011;30686;52.512;-1.188;2023-02-28T11:11:25;11.38;;;5.07;;
44955;SDS011;30686;52.512;-1.188;2023-02-28T11:16:38;5.72;;;3.22;;
44955;SDS011;30686;52.512;-1.188;2023-02-28T11:19:06;6.47;;;3.92;;
44955;SDS011;30686;52.512;-1.188;2023-02-28T11:21:45;8.15;;;3.88;;
44955;SDS011;30686;52.512;-1.188;2023-02-28T11:26:44;5.55;;;3.10;;
44955;SDS011;30686;52.512;-1.188;2023-02-28T11:29:12;10.25;;;5.35;;
44955;SDS011;30686;52.512;-1.188;2023-02-28T11:31:42;9.57;;;5.88;;
44955;SDS011;30686;52.512;-1.188;2023-02-28T11:34:22;10.23;;;5.03;;
44955;SDS011;30686;52.512;-1.188;2023-02-28T11:36:52;5.97;;;3.05;;
44955;SDS011;30686;52.512;-1.188;2023-02-28T11:39:19;2.90;;;1.65;;
44955;SDS011;30686;52.512;-1.188;2023-02-28T11:55:27;9.80;;;6.18;;
44955;SDS011;30686;52.512;-1.188;2023-02-28T12:00:31;3.65;;;2.10;;
44955;SDS011;30686;52.512;-1.188;2023-02-28T12:05:45;6.65;;;3.50;;
44955;SDS011;30686;52.512;-1.188;2023-02-28T12:08:22;7.63;;;3.45;;
44955;SDS011;30686;52.512;-1.188;2023-02-28T12:13:34;3.35;;;2.10;;
44955;SDS011;30686;52.512;-1.188;2023-02-28T12:18:35;5.72;;;3.00;;
44955;SDS011;30686;52.512;-1.188;2023-02-28T12:28:56;10.07;;;4.45;;
44955;SDS011;30686;52.512;-1.188;2023-02-28T12:31:31;12.63;;;5.10;;
44955;SDS011;30686;52.512;-1.188;2023-02-28T12:34:05;19.60;;;8.30;;
44955;SDS011;30686;52.512;-1.188;2023-02-28T12:36:32;14.18;;;6.38;;
44955;SDS011;30686;52.512;-1.188;2023-02-28T12:41:42;8.95;;;4.00;;
44955;SDS011;30686;52.512;-1.188;2023-02-28T12:44:15;8.10;;;3.63;;
44955;SDS011;30686;52.512;-1.188;2023-02-28T12:46:54;6.97;;;2.75;;
44955;SDS011;30686;52.512;-1.188;2023-02-28T12:49:23;11.25;;;5.97;;
44955;SDS011;30686;52.512;-1.188;2023-02-28T12:51:51;12.40;;;5.82;;
44955;SDS011;30686;52.512;-1.188;2023-02-28T12:54:25;9.50;;;5.03;;
44955;SDS011;30686;52.512;-1.188;2023-02-28T12:59:41;8.70;;;4.75;;
44955;SDS011;30686;52.512;-1.188;2023-02-28T13:02:18;8.15;;;3.83;;
44955;SDS011;30686;52.512;-1.188;2023-02-28T13:04:51;7.82;;;3.70;;
44955;SDS011;30686;52.512;-1.188;2023-02-28T13:10:00;5.93;;;3.45;;
44955;SDS011;30686;52.512;-1.188;2023-02-28T13:12:28;5.15;;;2.20;;
44955;SDS011;30686;52.512;-1.188;2023-02-28T13:15:02;3.75;;;2.20;;
44955;SDS011;30686;52.512;-1.188;2023-02-28T13:17:30;4.20;;;2.10;;
44955;SDS011;30686;52.512;-1.188;2023-02-28T13:19:59;10.57;;;3.53;;
44955;SDS011;30686;52.512;-1.188;2023-02-28T13:24:52;5.50;;;2.55;;
44955;SDS011;30686;52.512;-1.188;2023-02-28T13:27:23;6.60;;;3.15;;
44955;SDS011;30686;52.512;-1.188;2023-02-28T13:29:51;5.85;;;3.63;;
44955;SDS011;30686;52.512;-1.188;2023-02-28T13:32:33;6.78;;;3.88;;
44955;SDS011;30686;52.512;-1.188;2023-02-28T13:37:35;12.07;;;4.30;;
44955;SDS011;30686;52.512;-1.188;2023-02-28T13:42:46;2.97;;;1.90;;
44955;SDS011;30686;52.512;-1.188;2023-02-28T13:48:02;4.57;;;2.40;;
44955;SDS011;30686;52.512;-1.188;2023-02-28T13:55:27;3.10;;;1.58;;
44955;SDS011;30686;52.512;-1.188;2023-02-28T14:05:35;3.05;;;1.63;;
44955;SDS011;30686;52.512;-1.188;2023-02-28T14:08:16;3.15;;;1.50;;
44955;SDS011;30686;52.512;-1.188;2023-02-28T14:10:47;4.18;;;2.50;;
44955;SDS011;30686;52.512;-1.188;2023-02-28T14:13:36;4.45;;;2.00;;
44955;SDS011;30686;52.512;-1.188;2023-02-28T14:16:03;5.60;;;2.80;;
44955;SDS011;30686;52.512;-1.188;2023-02-28T14:18:36;8.52;;;3.20;;
44955;SDS011;30686;52.512;-1.188;2023-02-28T14:23:36;5.45;;;2.88;;
44955;SDS011;30686;52.512;-1.188;2023-02-28T14:36:35;4.68;;;3.00;;
44955;SDS011;30686;52.512;-1.188;2023-02-28T14:39:15;3.85;;;2.65;;
44955;SDS011;30686;52.512;-1.188;2023-02-28T14:41:43;7.70;;;2.75;;
44955;SDS011;30686;52.512;-1.188;2023-02-28T14:44:20;8.00;;;3.63;;
44955;SDS011;30686;52.512;-1.188;2023-02-28T14:46:55;6.82;;;3.03;;
44955;SDS011;30686;52.512;-1.188;2023-02-28T14:49:29;5.20;;;2.30;;
44955;SDS011;30686;52.512;-1.188;2023-02-28T14:52:03;3.03;;;1.45;;
44955;SDS011;30686;52.512;-1.188;2023-02-28T14:54:31;2.80;;;1.40;;
44955;SDS011;30686;52.512;-1.188;2023-02-28T14:56:58;4.88;;;2.53;;
44955;SDS011;30686;52.512;-1.188;2023-02-28T14:59:29;2.90;;;1.45;;
44955;SDS011;30686;52.512;-1.188;2023-02-28T15:02:15;3.13;;;1.50;;
44955;SDS011;30686;52.512;-1.188;2023-02-28T15:04:41;3.88;;;1.63;;
44955;SDS011;30686;52.512;-1.188;2023-02-28T15:07:13;2.88;;;1.65;;
44955;SDS011;30686;52.512;-1.188;2023-02-28T15:12:11;2.95;;;1.73;;
44955;SDS011;30686;52.512;-1.188;2023-02-28T15:14:41;3.03;;;1.67;;
44955;SDS011;30686;52.512;-1.188;2023-02-28T15:17:08;5.28;;;1.80;;
44955;SDS011;30686;52.512;-1.188;2023-02-28T15:19:39;2.22;;;1.33;;
44955;SDS011;30686;52.512;-1.188;2023-02-28T15:22:11;3.60;;;1.95;;
44955;SDS011;30686;52.512;-1.188;2023-02-28T15:24:44;4.82;;;3.03;;
44955;SDS011;30686;52.512;-1.188;2023-02-28T15:27:14;3.90;;;1.77;;
44955;SDS011;30686;52.512;-1.188;2023-02-28T15:29:48;5.45;;;1.85;;
44955;SDS011;30686;52.512;-1.188;2023-02-28T15:34:43;3.55;;;1.60;;
44955;SDS011;30686;52.512;-1.188;2023-02-28T15:37:26;3.47;;;1.70;;
44955;SDS011;30686;52.512;-1.188;2023-02-28T15:39:54;2.97;;;1.55;;
44955;SDS011;30686;52.512;-1.188;2023-02-28T15:42:26;2.78;;;1.25;;
44955;SDS011;30686;52.512;-1.188;2023-02-28T15:44:53;4.70;;;2.00;;
44955;SDS011;30686;52.512;-1.188;2023-02-28T15:47:21;3.40;;;1.85;;
44955;SDS011;30686;52.512;-1.188;2023-02-28T15:49:53;9.43;;;4.32;;
44955;SDS011;30686;52.512;-1.188;2023-02-28T15:57:35;34.30;;;9.98;;
44955;SDS011;30686;52.512;-1.188;2023-02-28T16:00:02;32.97;;;10.82;;
44955;SDS011;30686;52.512;-1.188;2023-02-28T16:02:33;17.15;;;5.10;;
44955;SDS011;30686;52.512;-1.188;2023-02-28T16:07:26;5.60;;;2.83;;
44955;SDS011;30686;52.512;-1.188;2023-02-28T16:09:53;6.10;;;2.95;;
44955;SDS011;30686;52.512;-1.188;2023-02-28T16:12:20;4.63;;;2.15;;
44955;SDS011;30686;52.512;-1.188;2023-02-28T16:14:47;6.03;;;2.55;;
44955;SDS011;30686;52.512;-1.188;2023-02-28T16:17:23;3.47;;;1.55;;
44955;SDS011;30686;52.512;-1.188;2023-02-28T16:19:50;7.95;;;2.88;;
44955;SDS011;30686;52.512;-1.188;2023-02-28T16:22:16;12.38;;;3.00;;
44955;SDS011;30686;52.512;-1.188;2023-02-28T16:24:42;4.18;;;2.38;;
44955;SDS011;30686;52.512;-1.188;2023-02-28T16:27:19;7.20;;;2.60;;
44955;SDS011;30686;52.512;-1.188;2023-02-28T16:29:46;6.95;;;3.05;;
44955;SDS011;30686;52.512;-1.188;2023-02-28T16:32:16;6.85;;;2.22;;
44955;SDS011;30686;52.512;-1.188;2023-02-28T16:34:43;7.78;;;2.75;;
44955;SDS011;30686;52.512;-1.188;2023-02-28T16:37:11;2.50;;;1.50;;
44955;SDS011;30686;52.512;-1.188;2023-02-28T16:39:38;2.30;;;1.30;;
44955;SDS011;30686;52.512;-1.188;2023-02-28T16:42:04;2.08;;;1.30;;
44955;SDS011;30686;52.512;-1.188;2023-02-28T16:44:33;3.33;;;1.75;;
44955;SDS011;30686;52.512;-1.188;2023-02-28T16:47:00;2.63;;;1.50;;
44955;SDS011;30686;52.512;-1.188;2023-02-28T16:49:26;3.67;;;1.73;;
44955;SDS011;30686;52.512;-1.188;2023-02-28T16:51:53;4.40;;;2.10;;
44955;SDS011;30686;52.512;-1.188;2023-02-28T16:54:19;6.20;;;2.70;;
44955;SDS011;30686;52.512;-1.188;2023-02-28T16:56:46;7.35;;;3.40;;
44955;SDS011;30686;52.512;-1.188;2023-02-28T16:59:13;8.52;;;2.70;;
44955;SDS011;30686;52.512;-1.188;2023-02-28T17:01:42;13.20;;;3.85;;
44955;SDS011;30686;52.512;-1.188;2023-02-28T17:04:10;5.22;;;2.40;;
44955;SDS011;30686;52.512;-1.188;2023-02-28T17:06:40;4.70;;;2.00;;